SARI METAR and TAF weather

Enter ICAO airport designator
Station Type Date Time Source
SARI METAR 2019/08/25 20:00 UTC NOAA

SARI 252000Z 09007KT CAVOK 28/12 Q1016


Station Type Date Time Source
SARI Decoded METAR 2019/08/25 20:00 UTC NOAA

Station name not available
Aug 25, 2019 - 04:00 PM EDT / 2019.08.25 2000 UTC
Wind: from the E (090 degrees) at 8 MPH (7 KT):0
Visibility: greater than 7 mile(s):0
Temperature: 82 F (28 C)
Dew Point: 53 F (12 C)
Relative Humidity: 37%
Pressure (altimeter): 30.00 in. Hg (1016 hPa)
ob: SARI 252000Z 09007KT CAVOK 28/12 Q1016
cycle: 20

Station Type Date Time Source
SARI TAF 2019/08/25 18:33 UTC NOAA

TAF SARI 251700Z 2518/2618 05010KT CAVOK TX28/2618Z TN15/2610Z

Example: see airport list